sensor_id;sensor_type;location;lat;lon;timestamp;temperature;humidity
2100;DHT22;1055;48.854;9.302;2023-11-19T00:00:06;8.60;99.90
2100;DHT22;1055;48.854;9.302;2023-11-19T00:02:38;8.70;99.90
2100;DHT22;1055;48.854;9.302;2023-11-19T00:05:03;8.70;99.90
2100;DHT22;1055;48.854;9.302;2023-11-19T00:07:29;8.70;99.90
2100;DHT22;1055;48.854;9.302;2023-11-19T00:09:54;8.70;99.90
2100;DHT22;1055;48.854;9.302;2023-11-19T00:12:20;8.70;99.90
2100;DHT22;1055;48.854;9.302;2023-11-19T00:14:46;8.80;99.90
2100;DHT22;1055;48.854;9.302;2023-11-19T00:17:11;8.70;99.90
2100;DHT22;1055;48.854;9.302;2023-11-19T00:19:37;8.70;99.90
2100;DHT22;1055;48.854;9.302;2023-11-19T00:22:03;8.70;99.90
2100;DHT22;1055;48.854;9.302;2023-11-19T00:24:29;8.90;99.90
2100;DHT22;1055;48.854;9.302;2023-11-19T00:26:56;8.80;99.90
2100;DHT22;1055;48.854;9.302;2023-11-19T00:29:21;8.90;99.90
2100;DHT22;1055;48.854;9.302;2023-11-19T00:31:47;8.70;99.90
2100;DHT22;1055;48.854;9.302;2023-11-19T00:34:13;8.70;99.90
2100;DHT22;1055;48.854;9.302;2023-11-19T00:36:39;8.90;99.90
2100;DHT22;1055;48.854;9.302;2023-11-19T00:39:04;8.80;99.90
2100;DHT22;1055;48.854;9.302;2023-11-19T00:41:31;9.10;99.90
2100;DHT22;1055;48.854;9.302;2023-11-19T00:43:56;9.10;99.90
2100;DHT22;1055;48.854;9.302;2023-11-19T00:46:22;9.00;99.90
2100;DHT22;1055;48.854;9.302;2023-11-19T00:48:47;9.10;99.90
2100;DHT22;1055;48.854;9.302;2023-11-19T00:51:13;9.00;99.90
2100;DHT22;1055;48.854;9.302;2023-11-19T00:53:39;9.10;99.90
2100;DHT22;1055;48.854;9.302;2023-11-19T00:56:05;9.00;99.90
2100;DHT22;1055;48.854;9.302;2023-11-19T00:58:31;9.10;99.90
2100;DHT22;1055;48.854;9.302;2023-11-19T01:00:57;9.30;99.90
2100;DHT22;1055;48.854;9.302;2023-11-19T01:03:23;9.20;99.90
2100;DHT22;1055;48.854;9.302;2023-11-19T01:05:48;9.50;99.90
2100;DHT22;1055;48.854;9.302;2023-11-19T01:08:14;9.40;99.90
2100;DHT22;1055;48.854;9.302;2023-11-19T01:10:41;9.50;99.90
2100;DHT22;1055;48.854;9.302;2023-11-19T01:13:06;9.60;99.90
2100;DHT22;1055;48.854;9.302;2023-11-19T01:15:32;9.50;99.90
2100;DHT22;1055;48.854;9.302;2023-11-19T01:17:58;9.50;99.90
2100;DHT22;1055;48.854;9.302;2023-11-19T01:20:23;9.50;99.90
2100;DHT22;1055;48.854;9.302;2023-11-19T01:22:50;9.80;99.90
2100;DHT22;1055;48.854;9.302;2023-11-19T01:25:15;9.60;99.90
2100;DHT22;1055;48.854;9.302;2023-11-19T01:27:41;9.90;99.90
2100;DHT22;1055;48.854;9.302;2023-11-19T01:30:08;9.70;99.90
2100;DHT22;1055;48.854;9.302;2023-11-19T01:32:35;9.50;99.90
2100;DHT22;1055;48.854;9.302;2023-11-19T01:35:03;9.50;99.90
2100;DHT22;1055;48.854;9.302;2023-11-19T01:37:29;9.60;99.90
2100;DHT22;1055;48.854;9.302;2023-11-19T01:39:55;9.70;99.90
2100;DHT22;1055;48.854;9.302;2023-11-19T01:42:20;9.70;99.90
2100;DHT22;1055;48.854;9.302;2023-11-19T01:44:58;10.00;99.90
2100;DHT22;1055;48.854;9.302;2023-11-19T01:47:23;9.90;99.90
2100;DHT22;1055;48.854;9.302;2023-11-19T01:49:50;10.20;99.90
2100;DHT22;1055;48.854;9.302;2023-11-19T01:52:16;10.30;99.90
2100;DHT22;1055;48.854;9.302;2023-11-19T01:54:42;10.20;99.90
2100;DHT22;1055;48.854;9.302;2023-11-19T01:57:08;10.20;99.90
2100;DHT22;1055;48.854;9.302;2023-11-19T01:59:34;10.20;99.90
2100;DHT22;1055;48.854;9.302;2023-11-19T02:02:00;10.00;99.90
2100;DHT22;1055;48.854;9.302;2023-11-19T02:04:26;10.20;99.90
2100;DHT22;1055;48.854;9.302;2023-11-19T02:06:54;10.50;99.90
2100;DHT22;1055;48.854;9.302;2023-11-19T02:09:21;10.40;99.90
2100;DHT22;1055;48.854;9.302;2023-11-19T02:11:47;10.50;99.90
2100;DHT22;1055;48.854;9.302;2023-11-19T02:14:17;10.40;99.90
2100;DHT22;1055;48.854;9.302;2023-11-19T02:16:43;10.60;99.90
2100;DHT22;1055;48.854;9.302;2023-11-19T02:19:09;10.70;99.90
2100;DHT22;1055;48.854;9.302;2023-11-19T02:21:36;10.70;99.90
2100;DHT22;1055;48.854;9.302;2023-11-19T02:24:06;10.60;99.90
2100;DHT22;1055;48.854;9.302;2023-11-19T02:26:42;10.70;99.90
2100;DHT22;1055;48.854;9.302;2023-11-19T02:29:11;10.60;99.90
2100;DHT22;1055;48.854;9.302;2023-11-19T02:31:37;10.60;99.90
2100;DHT22;1055;48.854;9.302;2023-11-19T02:34:02;10.60;99.90
2100;DHT22;1055;48.854;9.302;2023-11-19T02:36:28;11.00;99.90
2100;DHT22;1055;48.854;9.302;2023-11-19T02:38:54;11.10;99.90
2100;DHT22;1055;48.854;9.302;2023-11-19T02:41:20;11.10;99.90
2100;DHT22;1055;48.854;9.302;2023-11-19T02:43:45;11.30;99.90
2100;DHT22;1055;48.854;9.302;2023-11-19T02:46:13;11.40;99.90
2100;DHT22;1055;48.854;9.302;2023-11-19T02:48:39;11.20;99.90
2100;DHT22;1055;48.854;9.302;2023-11-19T02:51:05;10.90;99.90
2100;DHT22;1055;48.854;9.302;2023-11-19T02:53:35;10.70;99.90
2100;DHT22;1055;48.854;9.302;2023-11-19T02:56:00;10.60;99.90
2100;DHT22;1055;48.854;9.302;2023-11-19T02:58:37;10.70;99.90
2100;DHT22;1055;48.854;9.302;2023-11-19T03:01:04;10.80;99.90
2100;DHT22;1055;48.854;9.302;2023-11-19T03:03:38;10.60;99.90
2100;DHT22;1055;48.854;9.302;2023-11-19T03:06:06;10.70;99.90
2100;DHT22;1055;48.854;9.302;2023-11-19T03:08:34;10.60;99.90
2100;DHT22;1055;48.854;9.302;2023-11-19T03:11:00;10.70;99.90
2100;DHT22;1055;48.854;9.302;2023-11-19T03:13:26;10.60;99.90
2100;DHT22;1055;48.854;9.302;2023-11-19T03:15:52;10.60;99.90
2100;DHT22;1055;48.854;9.302;2023-11-19T03:18:19;10.40;99.90
2100;DHT22;1055;48.854;9.302;2023-11-19T03:20:46;10.40;99.90
2100;DHT22;1055;48.854;9.302;2023-11-19T03:23:12;10.30;99.90
2100;DHT22;1055;48.854;9.302;2023-11-19T03:25:38;10.30;99.90
2100;DHT22;1055;48.854;9.302;2023-11-19T03:28:04;10.10;99.90
2100;DHT22;1055;48.854;9.302;2023-11-19T03:30:30;10.10;99.90
2100;DHT22;1055;48.854;9.302;2023-11-19T03:32:56;10.10;99.90
2100;DHT22;1055;48.854;9.302;2023-11-19T03:35:23;10.10;99.90
2100;DHT22;1055;48.854;9.302;2023-11-19T03:37:49;10.40;99.90
2100;DHT22;1055;48.854;9.302;2023-11-19T03:40:15;10.20;99.90
2100;DHT22;1055;48.854;9.302;2023-11-19T03:42:40;10.30;99.90
2100;DHT22;1055;48.854;9.302;2023-11-19T03:45:07;10.20;99.90
2100;DHT22;1055;48.854;9.302;2023-11-19T03:47:34;10.10;99.90
2100;DHT22;1055;48.854;9.302;2023-11-19T03:50:00;10.00;99.90
2100;DHT22;1055;48.854;9.302;2023-11-19T03:52:26;10.00;99.90
2100;DHT22;1055;48.854;9.302;2023-11-19T03:54:52;9.90;99.90
2100;DHT22;1055;48.854;9.302;2023-11-19T03:57:19;9.80;99.90
2100;DHT22;1055;48.854;9.302;2023-11-19T03:59:45;9.80;99.90
2100;DHT22;1055;48.854;9.302;2023-11-19T04:02:11;9.90;99.90
2100;DHT22;1055;48.854;9.302;2023-11-19T04:04:36;10.00;99.90
2100;DHT22;1055;48.854;9.302;2023-11-19T04:07:04;10.10;99.90
2100;DHT22;1055;48.854;9.302;2023-11-19T04:09:30;10.00;99.90
2100;DHT22;1055;48.854;9.302;2023-11-19T04:12:00;9.80;99.90
2100;DHT22;1055;48.854;9.302;2023-11-19T04:14:26;10.00;99.90
2100;DHT22;1055;48.854;9.302;2023-11-19T04:16:51;9.90;99.90
2100;DHT22;1055;48.854;9.302;2023-11-19T04:19:18;10.00;99.90
2100;DHT22;1055;48.854;9.302;2023-11-19T04:21:43;10.00;99.90
2100;DHT22;1055;48.854;9.302;2023-11-19T04:24:09;10.00;99.90
2100;DHT22;1055;48.854;9.302;2023-11-19T04:26:41;9.90;99.90
2100;DHT22;1055;48.854;9.302;2023-11-19T04:29:09;10.10;99.90
2100;DHT22;1055;48.854;9.302;2023-11-19T04:31:36;10.00;99.90
2100;DHT22;1055;48.854;9.302;2023-11-19T04:34:02;9.90;99.90
2100;DHT22;1055;48.854;9.302;2023-11-19T04:36:27;10.10;99.90
2100;DHT22;1055;48.854;9.302;2023-11-19T04:38:55;9.90;99.90
2100;DHT22;1055;48.854;9.302;2023-11-19T04:41:20;10.00;99.90
2100;DHT22;1055;48.854;9.302;2023-11-19T04:43:46;10.00;99.90
2100;DHT22;1055;48.854;9.302;2023-11-19T04:46:11;10.20;99.90
2100;DHT22;1055;48.854;9.302;2023-11-19T04:48:37;10.20;99.90
2100;DHT22;1055;48.854;9.302;2023-11-19T04:51:05;10.20;99.90
2100;DHT22;1055;48.854;9.302;2023-11-19T04:53:30;10.20;99.90
2100;DHT22;1055;48.854;9.302;2023-11-19T04:55:56;10.30;99.90
2100;DHT22;1055;48.854;9.302;2023-11-19T04:58:21;10.50;99.90
2100;DHT22;1055;48.854;9.302;2023-11-19T05:00:47;10.70;99.90
2100;DHT22;1055;48.854;9.302;2023-11-19T05:03:13;10.80;99.90
2100;DHT22;1055;48.854;9.302;2023-11-19T05:05:38;10.80;99.90
2100;DHT22;1055;48.854;9.302;2023-11-19T05:08:04;10.90;99.90
2100;DHT22;1055;48.854;9.302;2023-11-19T05:10:30;11.00;99.90
2100;DHT22;1055;48.854;9.302;2023-11-19T05:12:56;11.00;99.90
2100;DHT22;1055;48.854;9.302;2023-11-19T05:15:22;11.00;99.90
2100;DHT22;1055;48.854;9.302;2023-11-19T05:17:47;11.20;99.90
2100;DHT22;1055;48.854;9.302;2023-11-19T05:20:13;11.20;99.90
2100;DHT22;1055;48.854;9.302;2023-11-19T05:22:40;11.20;99.90
2100;DHT22;1055;48.854;9.302;2023-11-19T05:25:06;11.20;99.90
2100;DHT22;1055;48.854;9.302;2023-11-19T05:27:32;11.30;99.90
2100;DHT22;1055;48.854;9.302;2023-11-19T05:29:57;11.50;99.90
2100;DHT22;1055;48.854;9.302;2023-11-19T05:32:23;11.50;99.90
2100;DHT22;1055;48.854;9.302;2023-11-19T05:34:49;11.50;99.90
2100;DHT22;1055;48.854;9.302;2023-11-19T05:37:14;11.50;99.90
2100;DHT22;1055;48.854;9.302;2023-11-19T05:39:40;11.50;99.90
2100;DHT22;1055;48.854;9.302;2023-11-19T05:42:05;11.50;99.90
2100;DHT22;1055;48.854;9.302;2023-11-19T05:44:31;11.50;99.90
2100;DHT22;1055;48.854;9.302;2023-11-19T05:46:56;11.50;99.90
2100;DHT22;1055;48.854;9.302;2023-11-19T05:49:22;11.50;99.90
2100;DHT22;1055;48.854;9.302;2023-11-19T05:51:47;11.50;99.90
2100;DHT22;1055;48.854;9.302;2023-11-19T05:54:13;11.50;99.90
2100;DHT22;1055;48.854;9.302;2023-11-19T05:56:39;11.60;99.90
2100;DHT22;1055;48.854;9.302;2023-11-19T05:59:04;11.60;99.90
2100;DHT22;1055;48.854;9.302;2023-11-19T06:01:34;11.60;99.90
2100;DHT22;1055;48.854;9.302;2023-11-19T06:04:00;11.60;99.90
2100;DHT22;1055;48.854;9.302;2023-11-19T06:06:28;11.70;99.90
2100;DHT22;1055;48.854;9.302;2023-11-19T06:08:54;11.60;99.90
2100;DHT22;1055;48.854;9.302;2023-11-19T06:11:20;11.70;99.90
2100;DHT22;1055;48.854;9.302;2023-11-19T06:13:46;11.80;99.90
2100;DHT22;1055;48.854;9.302;2023-11-19T06:16:13;11.90;99.90
2100;DHT22;1055;48.854;9.302;2023-11-19T06:18:39;12.10;99.90
2100;DHT22;1055;48.854;9.302;2023-11-19T06:21:06;12.30;99.90
2100;DHT22;1055;48.854;9.302;2023-11-19T06:23:32;12.20;99.90
2100;DHT22;1055;48.854;9.302;2023-11-19T06:25:58;12.20;99.90
2100;DHT22;1055;48.854;9.302;2023-11-19T06:28:24;12.00;99.90
2100;DHT22;1055;48.854;9.302;2023-11-19T06:30:50;12.10;99.90
2100;DHT22;1055;48.854;9.302;2023-11-19T06:33:15;12.10;99.90
2100;DHT22;1055;48.854;9.302;2023-11-19T06:35:41;12.20;99.90
2100;DHT22;1055;48.854;9.302;2023-11-19T06:38:07;12.10;99.90
2100;DHT22;1055;48.854;9.302;2023-11-19T06:40:33;12.10;99.90
2100;DHT22;1055;48.854;9.302;2023-11-19T06:43:00;12.00;99.90
2100;DHT22;1055;48.854;9.302;2023-11-19T06:45:26;12.10;99.90
2100;DHT22;1055;48.854;9.302;2023-11-19T06:47:51;12.00;99.90
2100;DHT22;1055;48.854;9.302;2023-11-19T06:50:17;11.90;99.90
2100;DHT22;1055;48.854;9.302;2023-11-19T06:52:43;12.00;99.90
2100;DHT22;1055;48.854;9.302;2023-11-19T06:55:08;12.00;99.90
2100;DHT22;1055;48.854;9.302;2023-11-19T06:57:34;12.00;99.90
2100;DHT22;1055;48.854;9.302;2023-11-19T07:00:00;11.90;99.90
2100;DHT22;1055;48.854;9.302;2023-11-19T07:02:26;11.80;99.90
2100;DHT22;1055;48.854;9.302;2023-11-19T07:04:51;11.90;99.90
2100;DHT22;1055;48.854;9.302;2023-11-19T07:07:17;11.90;99.90
2100;DHT22;1055;48.854;9.302;2023-11-19T07:09:43;11.90;99.90
2100;DHT22;1055;48.854;9.302;2023-11-19T07:12:09;11.90;99.90
2100;DHT22;1055;48.854;9.302;2023-11-19T07:14:34;11.80;99.90
2100;DHT22;1055;48.854;9.302;2023-11-19T07:17:00;11.70;99.90
2100;DHT22;1055;48.854;9.302;2023-11-19T07:19:26;11.70;99.90
2100;DHT22;1055;48.854;9.302;2023-11-19T07:21:53;11.70;99.90
2100;DHT22;1055;48.854;9.302;2023-11-19T07:24:20;11.60;99.90
2100;DHT22;1055;48.854;9.302;2023-11-19T07:26:49;11.80;99.90
2100;DHT22;1055;48.854;9.302;2023-11-19T07:29:18;11.80;99.90
2100;DHT22;1055;48.854;9.302;2023-11-19T07:31:44;11.80;99.90
2100;DHT22;1055;48.854;9.302;2023-11-19T07:34:12;11.80;99.90
2100;DHT22;1055;48.854;9.302;2023-11-19T07:36:40;11.90;99.90
2100;DHT22;1055;48.854;9.302;2023-11-19T07:39:07;11.90;99.90
2100;DHT22;1055;48.854;9.302;2023-11-19T07:41:34;11.80;99.90
2100;DHT22;1055;48.854;9.302;2023-11-19T07:44:00;11.90;99.90
2100;DHT22;1055;48.854;9.302;2023-11-19T07:46:26;11.90;99.90
2100;DHT22;1055;48.854;9.302;2023-11-19T07:48:55;11.90;99.90
2100;DHT22;1055;48.854;9.302;2023-11-19T07:51:20;11.90;99.90
2100;DHT22;1055;48.854;9.302;2023-11-19T07:53:47;11.80;99.90
2100;DHT22;1055;48.854;9.302;2023-11-19T07:56:13;12.00;99.90
2100;DHT22;1055;48.854;9.302;2023-11-19T07:58:39;11.80;99.90
2100;DHT22;1055;48.854;9.302;2023-11-19T08:01:06;12.00;99.90
2100;DHT22;1055;48.854;9.302;2023-11-19T08:03:32;11.80;99.90
2100;DHT22;1055;48.854;9.302;2023-11-19T08:05:59;11.80;99.90
2100;DHT22;1055;48.854;9.302;2023-11-19T08:08:25;11.90;99.90
2100;DHT22;1055;48.854;9.302;2023-11-19T08:10:51;11.80;99.90
2100;DHT22;1055;48.854;9.302;2023-11-19T08:13:18;11.90;99.90
2100;DHT22;1055;48.854;9.302;2023-11-19T08:15:43;11.80;99.90
2100;DHT22;1055;48.854;9.302;2023-11-19T08:18:09;11.90;99.90
2100;DHT22;1055;48.854;9.302;2023-11-19T08:20:35;12.00;99.90
2100;DHT22;1055;48.854;9.302;2023-11-19T08:23:02;12.10;99.90
2100;DHT22;1055;48.854;9.302;2023-11-19T08:25:29;12.20;99.90
2100;DHT22;1055;48.854;9.302;2023-11-19T08:27:54;12.30;99.90
2100;DHT22;1055;48.854;9.302;2023-11-19T08:30:20;12.40;99.90
2100;DHT22;1055;48.854;9.302;2023-11-19T08:32:45;12.40;99.90
2100;DHT22;1055;48.854;9.302;2023-11-19T08:35:11;12.40;99.90
2100;DHT22;1055;48.854;9.302;2023-11-19T08:37:36;12.50;99.90
2100;DHT22;1055;48.854;9.302;2023-11-19T08:40:03;12.60;99.90
2100;DHT22;1055;48.854;9.302;2023-11-19T08:42:30;12.60;99.90
2100;DHT22;1055;48.854;9.302;2023-11-19T08:44:55;12.70;99.90
2100;DHT22;1055;48.854;9.302;2023-11-19T08:47:21;12.70;99.90
2100;DHT22;1055;48.854;9.302;2023-11-19T08:49:50;12.80;99.90
2100;DHT22;1055;48.854;9.302;2023-11-19T08:52:15;12.90;99.90
2100;DHT22;1055;48.854;9.302;2023-11-19T08:54:43;12.90;99.90
2100;DHT22;1055;48.854;9.302;2023-11-19T08:57:08;13.00;99.90
2100;DHT22;1055;48.854;9.302;2023-11-19T08:59:34;13.20;99.90
2100;DHT22;1055;48.854;9.302;2023-11-19T09:01:59;13.40;99.90
2100;DHT22;1055;48.854;9.302;2023-11-19T09:04:25;13.40;99.90
2100;DHT22;1055;48.854;9.302;2023-11-19T09:06:51;13.60;99.90
2100;DHT22;1055;48.854;9.302;2023-11-19T09:09:16;13.60;99.90
2100;DHT22;1055;48.854;9.302;2023-11-19T09:11:42;13.50;99.90
2100;DHT22;1055;48.854;9.302;2023-11-19T09:14:08;13.60;99.90
2100;DHT22;1055;48.854;9.302;2023-11-19T09:16:33;13.60;99.90
2100;DHT22;1055;48.854;9.302;2023-11-19T09:18:59;13.50;99.90
2100;DHT22;1055;48.854;9.302;2023-11-19T09:21:26;13.50;99.90
2100;DHT22;1055;48.854;9.302;2023-11-19T09:23:51;13.60;99.90
2100;DHT22;1055;48.854;9.302;2023-11-19T09:26:18;13.60;99.90
2100;DHT22;1055;48.854;9.302;2023-11-19T09:28:44;13.60;99.90
2100;DHT22;1055;48.854;9.302;2023-11-19T09:31:16;13.70;99.90
2100;DHT22;1055;48.854;9.302;2023-11-19T09:33:42;13.80;99.90
2100;DHT22;1055;48.854;9.302;2023-11-19T09:36:08;13.80;99.90
2100;DHT22;1055;48.854;9.302;2023-11-19T09:38:34;13.80;99.90
2100;DHT22;1055;48.854;9.302;2023-11-19T09:41:07;13.70;99.90
2100;DHT22;1055;48.854;9.302;2023-11-19T09:43:38;13.70;99.90
2100;DHT22;1055;48.854;9.302;2023-11-19T09:46:06;13.60;99.90
2100;DHT22;1055;48.854;9.302;2023-11-19T09:48:37;13.70;99.90
2100;DHT22;1055;48.854;9.302;2023-11-19T09:51:04;13.80;99.90
2100;DHT22;1055;48.854;9.302;2023-11-19T09:53:30;13.90;99.90
2100;DHT22;1055;48.854;9.302;2023-11-19T09:55:59;13.90;99.90
2100;DHT22;1055;48.854;9.302;2023-11-19T09:58:26;14.10;99.90
2100;DHT22;1055;48.854;9.302;2023-11-19T10:00:52;14.20;99.90
2100;DHT22;1055;48.854;9.302;2023-11-19T10:03:17;14.30;99.90
2100;DHT22;1055;48.854;9.302;2023-11-19T10:05:43;14.30;99.90
2100;DHT22;1055;48.854;9.302;2023-11-19T10:08:09;14.40;99.90
2100;DHT22;1055;48.854;9.302;2023-11-19T10:10:36;14.50;99.90
2100;DHT22;1055;48.854;9.302;2023-11-19T10:13:02;14.50;99.90
2100;DHT22;1055;48.854;9.302;2023-11-19T10:15:28;14.80;99.90
2100;DHT22;1055;48.854;9.302;2023-11-19T10:17:58;15.00;99.90
2100;DHT22;1055;48.854;9.302;2023-11-19T10:20:24;15.00;99.90
2100;DHT22;1055;48.854;9.302;2023-11-19T10:22:55;15.00;99.90
2100;DHT22;1055;48.854;9.302;2023-11-19T10:25:22;14.80;99.90
2100;DHT22;1055;48.854;9.302;2023-11-19T10:27:50;14.70;99.90
2100;DHT22;1055;48.854;9.302;2023-11-19T10:30:26;15.00;99.90
2100;DHT22;1055;48.854;9.302;2023-11-19T10:35:35;15.00;99.90
2100;DHT22;1055;48.854;9.302;2023-11-19T10:38:14;15.10;99.90
2100;DHT22;1055;48.854;9.302;2023-11-19T10:40:41;15.40;99.90
2100;DHT22;1055;48.854;9.302;2023-11-19T10:43:06;15.40;99.90
2100;DHT22;1055;48.854;9.302;2023-11-19T10:45:36;15.50;99.90
2100;DHT22;1055;48.854;9.302;2023-11-19T10:48:03;15.40;99.90
2100;DHT22;1055;48.854;9.302;2023-11-19T10:50:39;15.40;99.90
2100;DHT22;1055;48.854;9.302;2023-11-19T10:53:06;15.30;99.90
2100;DHT22;1055;48.854;9.302;2023-11-19T10:55:34;15.50;99.90
2100;DHT22;1055;48.854;9.302;2023-11-19T10:58:05;15.50;99.90
2100;DHT22;1055;48.854;9.302;2023-11-19T11:00:45;15.20;99.90
2100;DHT22;1055;48.854;9.302;2023-11-19T11:03:21;15.20;99.90
2100;DHT22;1055;48.854;9.302;2023-11-19T11:05:50;15.20;99.90
2100;DHT22;1055;48.854;9.302;2023-11-19T11:08:17;15.30;99.90
2100;DHT22;1055;48.854;9.302;2023-11-19T11:11:06;15.30;99.90
2100;DHT22;1055;48.854;9.302;2023-11-19T11:13:31;15.30;99.90
2100;DHT22;1055;48.854;9.302;2023-11-19T11:15:57;15.20;99.90
2100;DHT22;1055;48.854;9.302;2023-11-19T11:18:24;15.30;99.90
2100;DHT22;1055;48.854;9.302;2023-11-19T11:20:57;15.40;99.90
2100;DHT22;1055;48.854;9.302;2023-11-19T11:26:53;15.20;99.90
2100;DHT22;1055;48.854;9.302;2023-11-19T11:29:51;15.20;99.90
2100;DHT22;1055;48.854;9.302;2023-11-19T11:34:53;15.20;99.90
2100;DHT22;1055;48.854;9.302;2023-11-19T11:37:50;15.20;99.90
2100;DHT22;1055;48.854;9.302;2023-11-19T11:40:18;15.20;99.90
2100;DHT22;1055;48.854;9.302;2023-11-19T11:42:47;15.00;99.90
2100;DHT22;1055;48.854;9.302;2023-11-19T11:45:14;15.10;99.90
2100;DHT22;1055;48.854;9.302;2023-11-19T11:50:18;15.20;99.90
2100;DHT22;1055;48.854;9.302;2023-11-19T11:55:25;15.30;99.90
2100;DHT22;1055;48.854;9.302;2023-11-19T11:57:51;15.40;99.90
2100;DHT22;1055;48.854;9.302;2023-11-19T12:00:43;15.50;99.90
2100;DHT22;1055;48.854;9.302;2023-11-19T12:03:09;15.50;99.90
2100;DHT22;1055;48.854;9.302;2023-11-19T12:05:47;15.40;99.90
2100;DHT22;1055;48.854;9.302;2023-11-19T12:08:14;15.50;99.90
2100;DHT22;1055;48.854;9.302;2023-11-19T12:10:49;15.50;99.90
2100;DHT22;1055;48.854;9.302;2023-11-19T12:13:16;15.60;99.90
2100;DHT22;1055;48.854;9.302;2023-11-19T12:18:27;15.80;99.90
2100;DHT22;1055;48.854;9.302;2023-11-19T12:20:53;15.80;99.90
2100;DHT22;1055;48.854;9.302;2023-11-19T12:23:19;15.80;99.90
2100;DHT22;1055;48.854;9.302;2023-11-19T12:25:44;15.90;99.90
2100;DHT22;1055;48.854;9.302;2023-11-19T12:28:14;16.00;99.90
2100;DHT22;1055;48.854;9.302;2023-11-19T12:30:40;15.90;99.90
2100;DHT22;1055;48.854;9.302;2023-11-19T12:33:09;15.90;99.90
2100;DHT22;1055;48.854;9.302;2023-11-19T12:38:05;16.10;99.90
2100;DHT22;1055;48.854;9.302;2023-11-19T12:40:30;16.00;99.90
2100;DHT22;1055;48.854;9.302;2023-11-19T12:42:56;16.10;99.90
2100;DHT22;1055;48.854;9.302;2023-11-19T12:45:22;16.00;99.90
2100;DHT22;1055;48.854;9.302;2023-11-19T12:47:49;16.00;99.90
2100;DHT22;1055;48.854;9.302;2023-11-19T12:50:18;16.00;99.90
2100;DHT22;1055;48.854;9.302;2023-11-19T12:52:55;16.00;99.90
2100;DHT22;1055;48.854;9.302;2023-11-19T12:55:29;16.00;99.90
2100;DHT22;1055;48.854;9.302;2023-11-19T12:57:55;16.10;99.90
2100;DHT22;1055;48.854;9.302;2023-11-19T13:00:23;16.20;99.90
2100;DHT22;1055;48.854;9.302;2023-11-19T13:02:51;16.30;99.90
2100;DHT22;1055;48.854;9.302;2023-11-19T13:05:21;16.40;99.90
2100;DHT22;1055;48.854;9.302;2023-11-19T13:07:47;16.40;99.90
2100;DHT22;1055;48.854;9.302;2023-11-19T13:10:13;16.50;99.90
2100;DHT22;1055;48.854;9.302;2023-11-19T13:12:38;16.60;99.90
2100;DHT22;1055;48.854;9.302;2023-11-19T13:15:05;16.50;99.90
2100;DHT22;1055;48.854;9.302;2023-11-19T13:17:30;16.50;99.90
2100;DHT22;1055;48.854;9.302;2023-11-19T13:19:56;16.60;99.90
2100;DHT22;1055;48.854;9.302;2023-11-19T13:22:22;16.40;99.90
2100;DHT22;1055;48.854;9.302;2023-11-19T13:24:48;16.40;99.90
2100;DHT22;1055;48.854;9.302;2023-11-19T13:27:14;16.30;99.90
2100;DHT22;1055;48.854;9.302;2023-11-19T13:29:39;16.20;99.90
2100;DHT22;1055;48.854;9.302;2023-11-19T13:32:05;16.20;99.90
2100;DHT22;1055;48.854;9.302;2023-11-19T13:34:31;16.30;99.90
2100;DHT22;1055;48.854;9.302;2023-11-19T13:36:56;16.10;99.90
2100;DHT22;1055;48.854;9.302;2023-11-19T13:39:22;16.00;99.90
2100;DHT22;1055;48.854;9.302;2023-11-19T13:41:49;16.00;99.90
2100;DHT22;1055;48.854;9.302;2023-11-19T13:44:16;16.10;99.90
2100;DHT22;1055;48.854;9.302;2023-11-19T13:46:44;16.10;99.90
2100;DHT22;1055;48.854;9.302;2023-11-19T13:49:10;16.10;99.90
2100;DHT22;1055;48.854;9.302;2023-11-19T13:51:36;16.00;99.90
2100;DHT22;1055;48.854;9.302;2023-11-19T13:54:02;15.90;99.90
2100;DHT22;1055;48.854;9.302;2023-11-19T13:56:28;16.00;99.90
2100;DHT22;1055;48.854;9.302;2023-11-19T13:58:53;16.10;99.90
2100;DHT22;1055;48.854;9.302;2023-11-19T14:01:19;16.10;99.90
2100;DHT22;1055;48.854;9.302;2023-11-19T14:03:44;16.10;99.90
2100;DHT22;1055;48.854;9.302;2023-11-19T14:06:10;16.20;99.90
2100;DHT22;1055;48.854;9.302;2023-11-19T14:08:37;16.40;99.90
2100;DHT22;1055;48.854;9.302;2023-11-19T14:11:03;16.50;99.90
2100;DHT22;1055;48.854;9.302;2023-11-19T14:13:30;16.60;99.90
2100;DHT22;1055;48.854;9.302;2023-11-19T14:15:56;16.70;99.90
2100;DHT22;1055;48.854;9.302;2023-11-19T14:18:21;16.60;99.90
2100;DHT22;1055;48.854;9.302;2023-11-19T14:20:48;16.50;99.90
2100;DHT22;1055;48.854;9.302;2023-11-19T14:23:13;16.50;99.90
2100;DHT22;1055;48.854;9.302;2023-11-19T14:25:39;16.50;99.90
2100;DHT22;1055;48.854;9.302;2023-11-19T14:28:05;16.30;99.90
2100;DHT22;1055;48.854;9.302;2023-11-19T14:30:30;16.30;99.90
2100;DHT22;1055;48.854;9.302;2023-11-19T14:32:56;16.10;99.90
2100;DHT22;1055;48.854;9.302;2023-11-19T14:35:21;16.10;99.90
2100;DHT22;1055;48.854;9.302;2023-11-19T14:37:47;16.20;99.90
2100;DHT22;1055;48.854;9.302;2023-11-19T14:40:12;16.10;99.90
2100;DHT22;1055;48.854;9.302;2023-11-19T14:42:38;16.10;99.90
2100;DHT22;1055;48.854;9.302;2023-11-19T14:45:07;15.90;99.90
2100;DHT22;1055;48.854;9.302;2023-11-19T14:47:33;16.00;99.90
2100;DHT22;1055;48.854;9.302;2023-11-19T14:49:58;15.90;99.90
2100;DHT22;1055;48.854;9.302;2023-11-19T14:52:24;15.80;99.90
2100;DHT22;1055;48.854;9.302;2023-11-19T14:54:49;15.90;99.90
2100;DHT22;1055;48.854;9.302;2023-11-19T14:57:16;15.80;99.90
2100;DHT22;1055;48.854;9.302;2023-11-19T14:59:42;15.70;99.90
2100;DHT22;1055;48.854;9.302;2023-11-19T15:02:08;15.70;99.90
2100;DHT22;1055;48.854;9.302;2023-11-19T15:04:33;15.70;99.90
2100;DHT22;1055;48.854;9.302;2023-11-19T15:06:59;15.80;99.90
2100;DHT22;1055;48.854;9.302;2023-11-19T15:09:25;16.00;99.90
2100;DHT22;1055;48.854;9.302;2023-11-19T15:11:53;16.00;99.90
2100;DHT22;1055;48.854;9.302;2023-11-19T15:14:19;15.90;99.90
2100;DHT22;1055;48.854;9.302;2023-11-19T15:16:46;15.70;99.90
2100;DHT22;1055;48.854;9.302;2023-11-19T15:19:12;15.50;99.90
2100;DHT22;1055;48.854;9.302;2023-11-19T15:21:41;15.30;99.90
2100;DHT22;1055;48.854;9.302;2023-11-19T15:24:08;15.20;99.90
2100;DHT22;1055;48.854;9.302;2023-11-19T15:26:34;15.10;99.90
2100;DHT22;1055;48.854;9.302;2023-11-19T15:29:01;15.00;99.90
2100;DHT22;1055;48.854;9.302;2023-11-19T15:31:26;15.00;99.90
2100;DHT22;1055;48.854;9.302;2023-11-19T15:33:52;14.80;99.90
2100;DHT22;1055;48.854;9.302;2023-11-19T15:36:17;14.70;99.90
2100;DHT22;1055;48.854;9.302;2023-11-19T15:38:44;14.60;99.90
2100;DHT22;1055;48.854;9.302;2023-11-19T15:41:09;14.50;99.90
2100;DHT22;1055;48.854;9.302;2023-11-19T15:43:35;14.60;99.90
2100;DHT22;1055;48.854;9.302;2023-11-19T15:46:05;14.60;99.90
2100;DHT22;1055;48.854;9.302;2023-11-19T15:48:30;14.50;99.90
2100;DHT22;1055;48.854;9.302;2023-11-19T15:50:56;14.50;99.90
2100;DHT22;1055;48.854;9.302;2023-11-19T15:53:21;14.40;99.90
2100;DHT22;1055;48.854;9.302;2023-11-19T15:55:47;14.60;99.90
2100;DHT22;1055;48.854;9.302;2023-11-19T15:58:12;14.40;99.90
2100;DHT22;1055;48.854;9.302;2023-11-19T16:00:38;14.40;99.90
2100;DHT22;1055;48.854;9.302;2023-11-19T16:03:06;14.40;99.90
2100;DHT22;1055;48.854;9.302;2023-11-19T16:05:32;14.30;99.90
2100;DHT22;1055;48.854;9.302;2023-11-19T16:07:58;14.20;99.90
2100;DHT22;1055;48.854;9.302;2023-11-19T16:10:23;14.20;99.90
2100;DHT22;1055;48.854;9.302;2023-11-19T16:12:49;14.10;99.90
2100;DHT22;1055;48.854;9.302;2023-11-19T16:15:14;14.10;99.90
2100;DHT22;1055;48.854;9.302;2023-11-19T16:17:43;14.10;99.90
2100;DHT22;1055;48.854;9.302;2023-11-19T16:20:10;14.20;99.90